Blanding, Utah
Current Conditions -  °F | °C
As of 8:35 PM on Monday 20 Oct 2014 (Local Time) from KBDG Reporting Station
Scattered Clouds Scattered Clouds  
Wind Chill: 56°   Ceiling: Unl
Heat Index: 56°   Visibility: 10mi
Dew Point: 37°   Wind: 7mph
Humidity: 50%   Direction: 50°NE
Pressure: 30.18"   Gusts: NA
Location:  37.62°N, 109.48°W
Report Text: KBDG 210235Z AUTO 05006KT 10SM SCT080 13/03 A3018 RMK AO1 T01330030
Loading
Personal Weather Stations






























Interactive Weather Map
Tropical Storm Tracking
New forecast layout! Learn more

10-Day Weather Forecast

Advertisements
Track Severe Weather on mobile